Armant, Egypt
Current Conditions -  °F | °C
As of 5:00 PM on Friday 19 Dec 2014 (Local Time) from HELX Reporting Station
Clear Clear  
Wind Chill: 77°   Ceiling: Unl
Heat Index: 79°   Visibility: 6mi
Dew Point: 55°   Wind: 0mph
Humidity: 47%   Direction: NA
Pressure: 29.97"   Gusts: NA
Location:  25.72°N, 32.59°E
Report Text: HELX 191500Z 00000KT CAVOK 25/13 Q1015 NOSIG
Loading
Personal Weather Stations






























Interactive Weather Map New forecast layout! Learn more

10-Day Weather Forecast

Advertisements
Track Severe Weather on mobile